Time;durP1;ratioP1;P1;durP2;ratioP2;P2;SDS_P1;SDS_P2;PMS_P1;PMS_P2;Temp;Humidity;BMP_temperature;BMP_pressure;BME280_temperature;BME280_humidity;BME280_pressure;Samples;Min_cycle;Max_cycle;Signal;HPM_P1;HPM_P2
2021/01/07 00:00:32;;;;;;;4.50;1.13;;;;;;;;;;10338531;28;20399;-62
2021/01/07 00:05:30;;;;;;;1.80;1.17;;;;;;;;;;10321830;28;20112;-59
2021/01/07 00:10:27;;;;;;;1.37;1.13;;;;;;;;;;10333836;28;20045;-62
2021/01/07 00:15:24;;;;;;;1.43;1.27;;;;;;;;;;10327479;28;20044;-62
2021/01/07 00:20:22;;;;;;;0.73;0.63;;;;;;;;;;10322240;28;20036;-62
2021/01/07 00:25:19;;;;;;;1.13;1.13;;;;;;;;;;10333719;28;20041;-60
2021/01/07 00:30:17;;;;;;;2.17;1.03;;;;;;;;;;10321044;28;20499;-62
2021/01/07 00:35:14;;;;;;;3.42;2.38;;;;;;;;;;10315421;28;20041;-61
2021/01/07 00:40:12;;;;;;;2.37;1.23;;;;;;;;;;10336105;28;20523;-62
2021/01/07 00:45:10;;;;;;;0.50;0.50;;;;;;;;;;10302576;28;20037;-61
2021/01/07 00:50:07;;;;;;;3.43;0.97;;;;;;;;;;10312474;28;20057;-61
2021/01/07 00:55:05;;;;;;;0.60;0.60;;;;;;;;;;10321807;28;20128;-60
2021/01/07 01:00:07;;;;;;;0.85;0.73;;;;;;;;;;10320386;28;20503;-61
2021/01/07 01:05:06;;;;;;;0.77;0.70;;;;;;;;;;10331621;28;20029;-62
2021/01/07 01:10:10;;;;;;;0.60;0.60;;;;;;;;;;10312846;28;20037;-61
2021/01/07 01:15:09;;;;;;;1.50;1.38;;;;;;;;;;10325557;28;20075;-62
2021/01/07 01:20:07;;;;;;;2.30;1.02;;;;;;;;;;10324035;28;20033;-62
2021/01/07 01:25:09;;;;;;;0.57;0.55;;;;;;;;;;10321849;28;20395;-62
2021/01/07 01:30:07;;;;;;;4.30;1.23;;;;;;;;;;10312493;28;20579;-62
2021/01/07 01:35:05;;;;;;;1.50;1.10;;;;;;;;;;10324286;28;20063;-60
2021/01/07 01:40:04;;;;;;;3.10;1.65;;;;;;;;;;10310561;28;20048;-61
2021/01/07 01:45:01;;;;;;;0.73;0.70;;;;;;;;;;10302286;28;20110;-61
2021/01/07 01:49:59;;;;;;;0.47;0.47;;;;;;;;;;10322678;28;20090;-60
2021/01/07 01:54:56;;;;;;;0.50;0.50;;;;;;;;;;10326411;28;20380;-60
2021/01/07 01:59:53;;;;;;;1.73;1.13;;;;;;;;;;10324519;28;20040;-64
2021/01/07 02:04:51;;;;;;;1.30;0.67;;;;;;;;;;10323052;28;20040;-61
2021/01/07 02:09:48;;;;;;;1.60;1.27;;;;;;;;;;10302921;28;20048;-61
2021/01/07 02:14:46;;;;;;;0.75;0.55;;;;;;;;;;10323282;28;20033;-60
2021/01/07 02:19:44;;;;;;;0.57;0.57;;;;;;;;;;10322326;28;20044;-61
2021/01/07 02:24:41;;;;;;;0.43;0.43;;;;;;;;;;10306827;28;20871;-60
2021/01/07 02:29:39;;;;;;;1.03;1.03;;;;;;;;;;10320269;28;20087;-62
2021/01/07 02:34:36;;;;;;;0.97;0.97;;;;;;;;;;10330826;28;20029;-60
2021/01/07 02:39:33;;;;;;;3.57;0.80;;;;;;;;;;10337065;28;20515;-60
2021/01/07 02:44:31;;;;;;;0.40;0.40;;;;;;;;;;10332387;28;20484;-64
2021/01/07 02:49:28;;;;;;;0.77;0.77;;;;;;;;;;10294647;28;20407;-60
2021/01/07 02:54:28;;;;;;;1.13;1.03;;;;;;;;;;10336913;28;20078;-63
2021/01/07 02:59:25;;;;;;;1.52;1.42;;;;;;;;;;10338135;28;20078;-61
2021/01/07 03:04:22;;;;;;;0.57;0.57;;;;;;;;;;10321003;28;20486;-62
2021/01/07 03:09:20;;;;;;;0.60;0.47;;;;;;;;;;10328386;28;20041;-61
2021/01/07 03:14:17;;;;;;;4.03;0.80;;;;;;;;;;10334996;28;20517;-61
2021/01/07 03:19:14;;;;;;;2.33;1.70;;;;;;;;;;10327575;28;20392;-59
2021/01/07 03:24:12;;;;;;;1.33;0.80;;;;;;;;;;10321120;28;20396;-61
2021/01/07 03:29:09;;;;;;;1.07;0.97;;;;;;;;;;10318075;28;20048;-60
2021/01/07 03:34:07;;;;;;;0.30;0.30;;;;;;;;;;10327481;28;20116;-61
2021/01/07 03:39:04;;;;;;;1.30;0.87;;;;;;;;;;10323096;28;20030;-59
2021/01/07 03:44:02;;;;;;;0.50;0.50;;;;;;;;;;10336479;28;20030;-62
2021/01/07 03:48:59;;;;;;;1.50;0.80;;;;;;;;;;10326194;28;20091;-60
2021/01/07 03:53:56;;;;;;;1.00;1.00;;;;;;;;;;10333467;28;20383;-61
2021/01/07 03:58:54;;;;;;;0.53;0.53;;;;;;;;;;10331637;28;20040;-62
2021/01/07 04:03:52;;;;;;;0.38;0.38;;;;;;;;;;10309091;28;20033;-60
2021/01/07 04:08:49;;;;;;;0.53;0.53;;;;;;;;;;10333425;28;20127;-59
2021/01/07 04:13:46;;;;;;;0.30;0.30;;;;;;;;;;10318658;28;20033;-59
2021/01/07 04:18:44;;;;;;;0.80;0.80;;;;;;;;;;10333721;28;20109;-60
2021/01/07 04:23:41;;;;;;;1.07;0.77;;;;;;;;;;10320889;28;20522;-60
2021/01/07 04:28:38;;;;;;;0.83;0.70;;;;;;;;;;10333420;28;20126;-61
2021/01/07 04:33:36;;;;;;;0.30;0.30;;;;;;;;;;10321957;28;20032;-61
2021/01/07 04:38:33;;;;;;;1.20;0.67;;;;;;;;;;10323718;28;20037;-61
2021/01/07 04:43:31;;;;;;;0.73;0.73;;;;;;;;;;10333099;28;20048;-61
2021/01/07 04:48:28;;;;;;;0.57;0.57;;;;;;;;;;10312266;28;20038;-61
2021/01/07 04:53:26;;;;;;;0.60;0.60;;;;;;;;;;10325717;28;20032;-62
2021/01/07 04:58:23;;;;;;;0.40;0.40;;;;;;;;;;10333547;28;20022;-63
2021/01/07 05:03:21;;;;;;;1.13;0.50;;;;;;;;;;10332550;28;20123;-62
2021/01/07 05:08:19;;;;;;;0.40;0.40;;;;;;;;;;10323534;28;20135;-62
2021/01/07 05:13:17;;;;;;;0.52;0.52;;;;;;;;;;10318059;28;20128;-62
2021/01/07 05:18:14;;;;;;;13.45;0.73;;;;;;;;;;10322885;28;20110;-62
2021/01/07 05:23:12;;;;;;;0.20;0.20;;;;;;;;;;10315529;28;20046;-62
2021/01/07 05:28:11;;;;;;;0.30;0.30;;;;;;;;;;10310927;28;20026;-63
2021/01/07 05:33:09;;;;;;;1.17;0.50;;;;;;;;;;10318329;28;20793;-62
2021/01/07 05:38:07;;;;;;;0.30;0.30;;;;;;;;;;10315355;28;20048;-62
2021/01/07 05:43:08;;;;;;;1.58;1.23;;;;;;;;;;10315240;28;20717;-62
2021/01/07 05:48:06;;;;;;;0.38;0.38;;;;;;;;;;10322873;28;20560;-60
2021/01/07 05:53:03;;;;;;;0.50;0.50;;;;;;;;;;10325134;28;20498;-62
2021/01/07 05:58:02;;;;;;;0.37;0.37;;;;;;;;;;10304439;28;20392;-62
2021/01/07 06:03:00;;;;;;;1.10;0.77;;;;;;;;;;10331924;28;20143;-61
2021/01/07 06:07:58;;;;;;;0.50;0.50;;;;;;;;;;10321259;28;20041;-61
2021/01/07 06:12:55;;;;;;;2.55;1.77;;;;;;;;;;10300728;28;20033;-61
2021/01/07 06:17:53;;;;;;;1.77;1.13;;;;;;;;;;10339472;28;20043;-63
2021/01/07 06:22:51;;;;;;;1.50;1.13;;;;;;;;;;10318008;28;20492;-63
2021/01/07 06:27:49;;;;;;;;;;;;;;;;;;10312562;28;20041;-63
2021/01/07 06:32:47;;;;;;;3.10;1.63;;;;;;;;;;10324172;28;20326;-65
2021/01/07 06:37:50;;;;;;;2.03;1.42;;;;;;;;;;10327325;28;20040;-63
2021/01/07 06:42:53;;;;;;;1.75;1.50;;;;;;;;;;10334778;28;20128;-63
2021/01/07 06:47:54;;;;;;;1.20;1.10;;;;;;;;;;10301536;28;674424;-63
2021/01/07 06:52:51;;;;;;;1.73;1.00;;;;;;;;;;10328048;28;20072;-63
2021/01/07 06:57:50;;;;;;;1.98;0.95;;;;;;;;;;10332662;28;20067;-64
2021/01/07 07:02:47;;;;;;;;;;;;;;;;;;10333248;28;20067;-63
2021/01/07 07:07:58;;;;;;;2.07;1.03;;;;;;;;;;10316621;28;19951;-63
2021/01/07 07:12:56;;;;;;;1.17;0.93;;;;;;;;;;10333679;28;20367;-62
2021/01/07 07:17:54;;;;;;;0.73;0.70;;;;;;;;;;10318617;28;20467;-66
2021/01/07 07:22:51;;;;;;;;;;;;;;;;;;10339114;28;20052;-64
2021/01/07 07:27:51;;;;;;;0.65;0.65;;;;;;;;;;10319949;28;19928;-64
2021/01/07 07:32:48;;;;;;;2.72;0.98;;;;;;;;;;10329130;28;20045;-63
2021/01/07 07:37:45;;;;;;;1.53;0.90;;;;;;;;;;10312649;28;20483;-65
2021/01/07 07:42:43;;;;;;;1.57;1.10;;;;;;;;;;10334593;28;20518;-64
2021/01/07 07:47:43;;;;;;;0.60;0.60;;;;;;;;;;10326423;28;20085;-63
2021/01/07 07:52:40;;;;;;;2.03;1.15;;;;;;;;;;10330635;28;20124;-64
2021/01/07 07:57:48;;;;;;;1.43;1.10;;;;;;;;;;10334136;28;20495;-63
2021/01/07 08:02:49;;;;;;;1.05;0.73;;;;;;;;;;10320199;28;20044;-64
2021/01/07 08:07:53;;;;;;;1.25;1.00;;;;;;;;;;10338312;28;20479;-63
2021/01/07 08:12:51;;;;;;;1.13;1.02;;;;;;;;;;10314541;28;20141;-63
2021/01/07 08:17:49;;;;;;;2.60;0.90;;;;;;;;;;10328052;28;20115;-63
2021/01/07 08:22:46;;;;;;;0.83;0.80;;;;;;;;;;10318332;28;20033;-62
2021/01/07 08:27:45;;;;;;;0.40;0.40;;;;;;;;;;10301937;28;20083;-63
2021/01/07 08:32:43;;;;;;;0.90;0.88;;;;;;;;;;10331820;28;20072;-63
2021/01/07 08:37:41;;;;;;;;;;;;;;;;;;10331008;28;20446;-63
2021/01/07 08:42:38;;;;;;;0.65;0.65;;;;;;;;;;10322236;28;19923;-65
2021/01/07 08:47:36;;;;;;;0.80;0.73;;;;;;;;;;10314547;28;20030;-63
2021/01/07 08:53:13;;;;;;;0.37;0.37;;;;;;;;;;10318000;28;20121;-63
2021/01/07 08:58:18;;;;;;;0.40;0.40;;;;;;;;;;10278756;28;20077;-64
2021/01/07 09:03:16;;;;;;;0.50;0.50;;;;;;;;;;10330795;28;20033;-64
2021/01/07 09:08:14;;;;;;;1.27;0.67;;;;;;;;;;10330186;28;20037;-64
2021/01/07 09:13:18;;;;;;;0.45;0.45;;;;;;;;;;10312641;28;20045;-64
2021/01/07 09:18:19;;;;;;;0.55;0.47;;;;;;;;;;10328495;28;20055;-63
2021/01/07 09:23:16;;;;;;;0.45;0.43;;;;;;;;;;10319831;28;20059;-62
2021/01/07 09:28:14;;;;;;;0.60;0.60;;;;;;;;;;10315618;28;20041;-63
2021/01/07 09:33:12;;;;;;;0.80;0.60;;;;;;;;;;10321160;28;20529;-63
2021/01/07 09:38:09;;;;;;;0.30;0.30;;;;;;;;;;10318376;28;20082;-63
2021/01/07 09:43:07;;;;;;;0.20;0.20;;;;;;;;;;10286569;28;20044;-64
2021/01/07 09:48:04;;;;;;;0.40;0.40;;;;;;;;;;10312860;28;20075;-64
2021/01/07 09:53:01;;;;;;;1.30;0.53;;;;;;;;;;10320716;28;20521;-62
2021/01/07 09:57:59;;;;;;;0.83;0.40;;;;;;;;;;10315638;28;20029;-64
2021/01/07 10:02:56;;;;;;;0.20;0.20;;;;;;;;;;10312826;28;20045;-64
2021/01/07 10:07:54;;;;;;;0.47;0.47;;;;;;;;;;10317989;28;20055;-64
2021/01/07 10:12:52;;;;;;;1.00;0.52;;;;;;;;;;10298310;28;20048;-64
2021/01/07 10:17:49;;;;;;;0.53;0.53;;;;;;;;;;10335361;28;20152;-63
2021/01/07 10:22:47;;;;;;;0.43;0.43;;;;;;;;;;10342797;28;20486;-63
2021/01/07 10:27:44;;;;;;;;;;;;;;;;;;10306844;28;20134;-63
2021/01/07 10:32:42;;;;;;;0.50;0.50;;;;;;;;;;10313670;28;20158;-62
2021/01/07 10:37:39;;;;;;;0.33;0.33;;;;;;;;;;10315066;28;20557;-62
2021/01/07 10:42:37;;;;;;;0.40;0.40;;;;;;;;;;10318806;28;20048;-64
2021/01/07 10:47:37;;;;;;;0.30;0.30;;;;;;;;;;10310298;28;20507;-64
2021/01/07 10:52:53;;;;;;;0.30;0.30;;;;;;;;;;10321930;28;20466;-64
2021/01/07 10:58:05;;;;;;;0.68;0.57;;;;;;;;;;10290990;28;20674;-62
2021/01/07 11:03:21;;;;;;;0.38;0.38;;;;;;;;;;10320626;28;20041;-64
2021/01/07 11:08:28;;;;;;;0.40;0.40;;;;;;;;;;10310562;28;20083;-63
2021/01/07 11:13:31;;;;;;;0.75;0.50;;;;;;;;;;10301318;28;20033;-64
2021/01/07 11:18:30;;;;;;;0.20;0.20;;;;;;;;;;10336576;28;20045;-61
2021/01/07 11:23:27;;;;;;;0.50;0.50;;;;;;;;;;10326139;28;20076;-64
2021/01/07 11:28:25;;;;;;;0.40;0.40;;;;;;;;;;10315973;28;20358;-63
2021/01/07 11:33:23;;;;;;;0.45;0.45;;;;;;;;;;10320566;28;20068;-65
2021/01/07 11:38:25;;;;;;;0.93;0.43;;;;;;;;;;10320640;28;21875;-64
2021/01/07 11:43:22;;;;;;;0.43;0.40;;;;;;;;;;10321744;28;20052;-63
2021/01/07 11:48:23;;;;;;;0.20;0.20;;;;;;;;;;10304741;28;20079;-64
2021/01/07 11:53:20;;;;;;;0.20;0.20;;;;;;;;;;10302537;28;20041;-63
2021/01/07 11:58:18;;;;;;;0.20;0.20;;;;;;;;;;10290210;28;20048;-64
2021/01/07 12:03:15;;;;;;;0.20;0.20;;;;;;;;;;10316341;28;20044;-64
2021/01/07 12:08:18;;;;;;;0.20;0.20;;;;;;;;;;10313415;28;20350;-64
2021/01/07 12:13:23;;;;;;;0.25;0.25;;;;;;;;;;10305620;28;20083;-65
2021/01/07 12:18:21;;;;;;;0.68;0.68;;;;;;;;;;10308790;28;20071;-64
2021/01/07 12:23:19;;;;;;;0.17;0.17;;;;;;;;;;10300992;28;20045;-64
2021/01/07 12:28:17;;;;;;;0.20;0.20;;;;;;;;;;10303304;28;20029;-63
2021/01/07 12:33:15;;;;;;;;;;;;;;;;;;10317812;28;20043;-65
2021/01/07 12:38:31;;;;;;;0.25;0.25;;;;;;;;;;10310870;28;19928;-63
2021/01/07 12:43:29;;;;;;;0.30;0.30;;;;;;;;;;10294807;28;20041;-64
2021/01/07 12:48:27;;;;;;;0.30;0.30;;;;;;;;;;10314478;28;20120;-63
2021/01/07 12:53:24;;;;;;;0.20;0.20;;;;;;;;;;10314772;28;20119;-63
2021/01/07 12:58:23;;;;;;;0.17;0.17;;;;;;;;;;10327164;28;20047;-63
2021/01/07 13:03:20;;;;;;;0.57;0.30;;;;;;;;;;10309315;28;20041;-64
2021/01/07 13:08:18;;;;;;;0.23;0.23;;;;;;;;;;10319240;28;20036;-64
2021/01/07 13:13:18;;;;;;;0.20;0.20;;;;;;;;;;10287813;28;20025;-64
2021/01/07 13:18:15;;;;;;;0.28;0.28;;;;;;;;;;10327188;28;20257;-64
2021/01/07 13:23:13;;;;;;;0.30;0.30;;;;;;;;;;10324462;28;20039;-64
2021/01/07 13:28:10;;;;;;;0.60;0.60;;;;;;;;;;10308462;28;20121;-64
2021/01/07 13:33:09;;;;;;;0.40;0.40;;;;;;;;;;10311601;28;20037;-64
2021/01/07 13:38:10;;;;;;;0.80;0.25;;;;;;;;;;10315834;28;20032;-63
2021/01/07 13:43:07;;;;;;;0.40;0.40;;;;;;;;;;10309268;28;20045;-63
2021/01/07 13:48:08;;;;;;;0.40;0.40;;;;;;;;;;10312343;28;20041;-63
2021/01/07 13:53:07;;;;;;;0.60;0.60;;;;;;;;;;10322337;28;20357;-63
2021/01/07 13:58:04;;;;;;;0.55;0.38;;;;;;;;;;10320282;28;20516;-64
2021/01/07 14:03:03;;;;;;;0.20;0.20;;;;;;;;;;10283509;28;20395;-62
2021/01/07 14:08:00;;;;;;;;;;;;;;;;;;10316712;28;20033;-63
2021/01/07 14:12:58;;;;;;;0.30;0.30;;;;;;;;;;10314479;28;19920;-62
2021/01/07 14:17:57;;;;;;;0.55;0.55;;;;;;;;;;10313637;28;20044;-63
2021/01/07 14:22:54;;;;;;;0.68;0.68;;;;;;;;;;10321631;28;20127;-62
2021/01/07 14:28:11;;;;;;;0.47;0.47;;;;;;;;;;10309183;28;20120;-62
2021/01/07 14:33:10;;;;;;;1.08;0.50;;;;;;;;;;10304673;28;20131;-62
2021/01/07 14:38:07;;;;;;;;;;;;;;;;;;10336146;28;20044;-62
2021/01/07 14:43:07;;;;;;;4.05;0.60;;;;;;;;;;10326827;28;19927;-62
2021/01/07 14:48:06;;;;;;;1.02;0.32;;;;;;;;;;10333664;28;20037;-62
2021/01/07 14:53:05;;;;;;;0.20;0.20;;;;;;;;;;10324498;28;20570;-63
2021/01/07 14:58:22;;;;;;;1.45;0.20;;;;;;;;;;10331565;28;20052;-61
2021/01/07 15:03:23;;;;;;;0.32;0.28;;;;;;;;;;10320334;28;20045;-62
2021/01/07 15:08:21;;;;;;;0.63;0.57;;;;;;;;;;10335424;28;20075;-62
2021/01/07 15:13:21;;;;;;;0.60;0.60;;;;;;;;;;10294686;28;20033;-63
2021/01/07 15:18:18;;;;;;;0.60;0.60;;;;;;;;;;10317292;28;20037;-60
2021/01/07 15:23:25;;;;;;;0.47;0.47;;;;;;;;;;10334022;28;20034;-61
2021/01/07 15:28:48;;;;;;;1.17;0.60;;;;;;;;;;10334938;28;20171;-62
2021/01/07 15:33:49;;;;;;;0.28;0.28;;;;;;;;;;10323165;28;20025;-62
2021/01/07 15:39:05;;;;;;;0.13;0.13;;;;;;;;;;10328476;28;20029;-62
2021/01/07 15:44:14;;;;;;;0.30;0.30;;;;;;;;;;10329584;28;20036;-63
2021/01/07 15:49:26;;;;;;;0.25;0.25;;;;;;;;;;10337606;28;20075;-64
2021/01/07 15:54:33;;;;;;;0.30;0.30;;;;;;;;;;10335816;28;20039;-63
2021/01/07 15:59:38;;;;;;;0.30;0.30;;;;;;;;;;10303338;28;20036;-63
2021/01/07 16:04:36;;;;;;;0.55;0.52;;;;;;;;;;10328269;28;20032;-62
2021/01/07 16:09:34;;;;;;;0.22;0.22;;;;;;;;;;10318813;28;20051;-63
2021/01/07 16:14:32;;;;;;;0.70;0.70;;;;;;;;;;10335232;28;20037;-63
2021/01/07 16:19:30;;;;;;;0.30;0.30;;;;;;;;;;10321686;28;20041;-63
2021/01/07 16:24:30;;;;;;;0.65;0.65;;;;;;;;;;10325290;28;20082;-63
2021/01/07 16:29:28;;;;;;;0.60;0.32;;;;;;;;;;10317827;28;20580;-63
2021/01/07 16:34:25;;;;;;;0.20;0.20;;;;;;;;;;10310305;28;20037;-63
2021/01/07 16:39:23;;;;;;;0.20;0.20;;;;;;;;;;10325411;28;20514;-62
2021/01/07 16:44:20;;;;;;;0.20;0.20;;;;;;;;;;10314882;28;20049;-63
2021/01/07 16:49:18;;;;;;;0.43;0.43;;;;;;;;;;10302161;28;20055;-64
2021/01/07 16:54:15;;;;;;;0.47;0.23;;;;;;;;;;10310049;28;20040;-63
2021/01/07 16:59:13;;;;;;;0.20;0.20;;;;;;;;;;10332301;28;20120;-63
2021/01/07 17:04:11;;;;;;;0.80;0.80;;;;;;;;;;10326382;28;20094;-63
2021/01/07 17:09:08;;;;;;;0.25;0.25;;;;;;;;;;10337944;28;20017;-63
2021/01/07 17:14:06;;;;;;;0.30;0.30;;;;;;;;;;10322153;28;20040;-61
2021/01/07 17:19:03;;;;;;;0.40;0.40;;;;;;;;;;10329351;28;20041;-63
2021/01/07 17:24:00;;;;;;;0.20;0.20;;;;;;;;;;10319671;28;20072;-63
2021/01/07 17:28:58;;;;;;;0.40;0.40;;;;;;;;;;10289697;28;20052;-63
2021/01/07 17:33:55;;;;;;;0.10;0.10;;;;;;;;;;10327116;28;20557;-63
2021/01/07 17:38:52;;;;;;;0.20;0.20;;;;;;;;;;10323859;28;20033;-65
2021/01/07 17:43:50;;;;;;;0.30;0.30;;;;;;;;;;10330864;28;20037;-63
2021/01/07 17:48:48;;;;;;;0.77;0.60;;;;;;;;;;10324797;28;20119;-62
2021/01/07 17:53:45;;;;;;;0.60;0.57;;;;;;;;;;10326839;28;20448;-63
2021/01/07 17:58:47;;;;;;;0.20;0.20;;;;;;;;;;10316108;28;20041;-64
2021/01/07 18:03:52;;;;;;;0.55;0.47;;;;;;;;;;10312408;28;20028;-63
2021/01/07 18:08:49;;;;;;;1.20;0.70;;;;;;;;;;10300394;28;21163;-63
2021/01/07 18:13:47;;;;;;;0.30;0.30;;;;;;;;;;10298265;28;20037;-64
2021/01/07 18:18:44;;;;;;;0.57;0.50;;;;;;;;;;10324445;28;20033;-63
2021/01/07 18:23:41;;;;;;;0.40;0.40;;;;;;;;;;10321859;28;20052;-63
2021/01/07 18:28:39;;;;;;;1.90;1.20;;;;;;;;;;10314297;28;20033;-63
2021/01/07 18:33:37;;;;;;;1.07;1.03;;;;;;;;;;10322000;28;20091;-63
2021/01/07 18:38:34;;;;;;;0.93;0.93;;;;;;;;;;10313098;28;20179;-64
2021/01/07 18:43:32;;;;;;;0.50;0.50;;;;;;;;;;10323516;28;20562;-64
2021/01/07 18:48:29;;;;;;;3.20;0.87;;;;;;;;;;10301645;28;20806;-63
2021/01/07 18:53:26;;;;;;;1.37;1.27;;;;;;;;;;10314839;28;20545;-63
2021/01/07 18:58:24;;;;;;;2.07;1.10;;;;;;;;;;10333114;28;20030;-64
2021/01/07 19:03:21;;;;;;;0.93;0.67;;;;;;;;;;10319241;28;20484;-63
2021/01/07 19:08:19;;;;;;;0.80;0.80;;;;;;;;;;10314998;28;20041;-63
2021/01/07 19:13:16;;;;;;;1.60;1.50;;;;;;;;;;10316963;28;20041;-64
2021/01/07 19:18:14;;;;;;;1.80;0.60;;;;;;;;;;10287664;28;20039;-64
2021/01/07 19:23:12;;;;;;;0.47;0.47;;;;;;;;;;10327293;28;20047;-63
2021/01/07 19:28:09;;;;;;;0.90;0.88;;;;;;;;;;10318217;28;20086;-63
2021/01/07 19:33:06;;;;;;;0.93;0.87;;;;;;;;;;10326475;28;20037;-64
2021/01/07 19:38:04;;;;;;;1.90;1.40;;;;;;;;;;10324027;28;20430;-63
2021/01/07 19:43:03;;;;;;;1.00;1.00;;;;;;;;;;10317409;28;20041;-63
2021/01/07 19:48:00;;;;;;;2.33;2.00;;;;;;;;;;10337142;28;20037;-63
2021/01/07 19:52:59;;;;;;;2.77;1.60;;;;;;;;;;10321467;28;20037;-63
2021/01/07 19:57:56;;;;;;;4.47;1.95;;;;;;;;;;10327957;28;20060;-63
2021/01/07 20:02:54;;;;;;;2.87;1.67;;;;;;;;;;10324954;28;20122;-63
2021/01/07 20:07:52;;;;;;;2.60;1.40;;;;;;;;;;10317293;28;20045;-62
2021/01/07 20:12:56;;;;;;;1.65;1.58;;;;;;;;;;10319512;28;20060;-63
2021/01/07 20:17:54;;;;;;;2.05;1.58;;;;;;;;;;10321733;28;20129;-63
2021/01/07 20:22:51;;;;;;;2.90;1.65;;;;;;;;;;10307231;28;20138;-63
2021/01/07 20:27:49;;;;;;;4.80;2.30;;;;;;;;;;10311225;28;20586;-63
2021/01/07 20:32:50;;;;;;;2.67;1.85;;;;;;;;;;10302268;28;20388;-63
2021/01/07 20:37:48;;;;;;;2.55;1.80;;;;;;;;;;10303118;28;20103;-62
2021/01/07 20:42:45;;;;;;;2.23;1.70;;;;;;;;;;10319154;28;20518;-63
2021/01/07 20:47:45;;;;;;;3.10;1.73;;;;;;;;;;10323964;28;20047;-62
2021/01/07 20:52:43;;;;;;;2.67;1.90;;;;;;;;;;10322703;28;20051;-62
2021/01/07 20:57:40;;;;;;;2.70;1.90;;;;;;;;;;10308329;28;20037;-63
2021/01/07 21:02:44;;;;;;;2.90;1.57;;;;;;;;;;10321144;28;20044;-63
2021/01/07 21:07:41;;;;;;;3.72;1.98;;;;;;;;;;10313274;28;20495;-63
2021/01/07 21:12:39;;;;;;;1.63;1.43;;;;;;;;;;10321680;28;20465;-63
2021/01/07 21:17:37;;;;;;;2.97;2.27;;;;;;;;;;10311125;28;20044;-63
2021/01/07 21:22:34;;;;;;;3.70;2.00;;;;;;;;;;10309243;28;20135;-63
2021/01/07 21:27:32;;;;;;;2.03;1.83;;;;;;;;;;10300301;28;20042;-63
2021/01/07 21:32:29;;;;;;;2.67;1.77;;;;;;;;;;10312473;28;20292;-64
2021/01/07 21:37:27;;;;;;;2.23;1.87;;;;;;;;;;10325736;28;20135;-63
2021/01/07 21:42:25;;;;;;;2.13;1.90;;;;;;;;;;10315328;28;20051;-63
2021/01/07 21:47:22;;;;;;;1.65;1.38;;;;;;;;;;10325590;28;20135;-63
2021/01/07 21:52:20;;;;;;;1.83;1.67;;;;;;;;;;10328325;28;20375;-63
2021/01/07 21:57:17;;;;;;;2.33;1.43;;;;;;;;;;10291987;28;20025;-64
2021/01/07 22:02:19;;;;;;;2.07;1.73;;;;;;;;;;10324371;28;20045;-64
2021/01/07 22:07:17;;;;;;;3.67;1.90;;;;;;;;;;10302550;28;20037;-65
2021/01/07 22:12:14;;;;;;;3.10;1.80;;;;;;;;;;10289708;28;20041;-65
2021/01/07 22:17:12;;;;;;;4.53;2.70;;;;;;;;;;10308018;28;20068;-64
2021/01/07 22:22:10;;;;;;;3.53;2.20;;;;;;;;;;10322525;28;20073;-64
2021/01/07 22:27:09;;;;;;;2.80;1.90;;;;;;;;;;10320704;28;20456;-64
2021/01/07 22:32:06;;;;;;;3.67;2.25;;;;;;;;;;10317932;28;20063;-64
2021/01/07 22:37:04;;;;;;;2.40;2.20;;;;;;;;;;10323197;28;20067;-66
2021/01/07 22:42:01;;;;;;;3.38;2.15;;;;;;;;;;10323462;28;20086;-65
2021/01/07 22:47:00;;;;;;;1.80;1.50;;;;;;;;;;10317263;28;20135;-65
2021/01/07 22:51:57;;;;;;;;;;;;;;;;;;10321583;28;20073;-64
2021/01/07 22:56:54;;;;;;;3.60;1.70;;;;;;;;;;10310421;28;19939;-66
2021/01/07 23:01:52;;;;;;;1.43;1.10;;;;;;;;;;10329105;28;20419;-65
2021/01/07 23:06:49;;;;;;;1.30;1.20;;;;;;;;;;10321407;28;20569;-65
2021/01/07 23:11:46;;;;;;;2.13;1.50;;;;;;;;;;10336281;28;20071;-65
2021/01/07 23:16:44;;;;;;;1.30;0.53;;;;;;;;;;10319202;28;20033;-64
2021/01/07 23:21:42;;;;;;;3.87;2.47;;;;;;;;;;10324500;28;20045;-65
2021/01/07 23:26:40;;;;;;;2.42;1.70;;;;;;;;;;10315084;28;20483;-64
2021/01/07 23:31:37;;;;;;;2.53;1.67;;;;;;;;;;10312887;28;20453;-64
2021/01/07 23:36:36;;;;;;;1.52;1.30;;;;;;;;;;10317441;28;20522;-65
2021/01/07 23:41:33;;;;;;;3.65;1.30;;;;;;;;;;10328344;28;20033;-65
2021/01/07 23:46:30;;;;;;;3.17;1.53;;;;;;;;;;10325294;28;20029;-65
2021/01/07 23:51:28;;;;;;;3.10;2.10;;;;;;;;;;10316544;28;20482;-65
2021/01/07 23:56:25;;;;;;;3.40;2.27;;;;;;;;;;10310761;28;20475;-65
